createdAt,value
2018-11-29T00:00:24.586Z,29.60
2018-11-29T00:02:53.276Z,29.13
2018-11-29T00:05:41.155Z,30.50
2018-11-29T00:08:15.421Z,27.43
2018-11-29T00:10:44.090Z,27.97
2018-11-29T00:13:12.763Z,31.20
2018-11-29T00:15:41.451Z,32.57
2018-11-29T00:18:10.114Z,32.00
2018-11-29T00:20:38.823Z,35.80
2018-11-29T00:23:07.479Z,32.60
2018-11-29T00:25:36.138Z,30.73
2018-11-29T00:28:05.768Z,30.97
2018-11-29T00:30:34.463Z,33.33
2018-11-29T00:33:03.127Z,33.50
2018-11-29T00:35:31.790Z,30.00
2018-11-29T00:38:00.459Z,32.33
2018-11-29T00:40:29.118Z,31.63
2018-11-29T00:42:57.796Z,32.27
2018-11-29T00:45:26.472Z,31.67
2018-11-29T00:47:55.171Z,30.00
2018-11-29T00:50:23.843Z,32.37
2018-11-29T00:52:52.503Z,32.93
2018-11-29T00:55:22.295Z,30.87
2018-11-29T00:57:51.646Z,28.43
2018-11-29T01:00:21.356Z,33.83
2018-11-29T01:02:50.181Z,35.23
2018-11-29T01:05:18.854Z,35.50
2018-11-29T01:07:47.527Z,31.43
2018-11-29T01:10:16.930Z,32.30
2018-11-29T01:12:46.007Z,32.67
2018-11-29T01:15:16.247Z,31.50
2018-11-29T01:17:45.827Z,31.80
2018-11-29T01:20:16.370Z,32.23
2018-11-29T01:22:45.043Z,33.97
2018-11-29T01:25:14.370Z,39.97
2018-11-29T01:27:44.054Z,32.90
2018-11-29T01:30:14.494Z,31.10
2018-11-29T01:32:43.183Z,40.70
2018-11-29T01:35:12.872Z,29.33
2018-11-29T01:37:41.546Z,29.30
2018-11-29T01:40:16.956Z,34.30
2018-11-29T01:42:47.011Z,32.37
2018-11-29T01:45:15.685Z,33.90
2018-11-29T01:47:44.377Z,31.77
2018-11-29T01:50:13.085Z,31.70
2018-11-29T01:52:41.743Z,32.40
2018-11-29T01:55:10.460Z,30.60
2018-11-29T01:57:39.135Z,32.57
2018-11-29T02:00:17.346Z,32.17
2018-11-29T02:02:47.966Z,34.00
2018-11-29T02:05:16.658Z,32.57
2018-11-29T02:07:45.311Z,32.93
2018-11-29T02:10:20.428Z,33.13
2018-11-29T02:12:49.077Z,37.30
2018-11-29T02:15:17.781Z,37.73
2018-11-29T02:17:46.446Z,35.13
2018-11-29T02:20:15.947Z,34.90
2018-11-29T02:22:44.659Z,59.03
2018-11-29T02:25:13.366Z,34.10
2018-11-29T02:27:42.038Z,33.70
2018-11-29T02:30:15.452Z,33.77
2018-11-29T02:32:44.124Z,34.40
2018-11-29T02:35:12.806Z,32.17
2018-11-29T02:37:41.484Z,33.40
2018-11-29T02:40:11.309Z,32.17
2018-11-29T02:42:40.269Z,33.47
2018-11-29T02:45:14.166Z,34.87
2018-11-29T02:47:42.867Z,35.90
2018-11-29T02:50:11.840Z,34.30
2018-11-29T02:52:40.481Z,30.97
2018-11-29T02:55:10.143Z,32.80
2018-11-29T02:57:38.918Z,30.17
2018-11-29T03:00:11.087Z,33.93
2018-11-29T03:02:39.802Z,35.07
2018-11-29T03:05:08.523Z,31.33
2018-11-29T03:07:37.476Z,34.13
2018-11-29T03:10:07.759Z,31.70
2018-11-29T03:12:36.445Z,34.33
2018-11-29T03:15:07.303Z,33.10
2018-11-29T03:17:35.982Z,37.53
2018-11-29T03:20:06.392Z,36.10
2018-11-29T03:22:35.079Z,36.93
2018-11-29T03:25:04.997Z,37.77
2018-11-29T03:27:33.667Z,33.37
2018-11-29T03:30:02.344Z,35.60
2018-11-29T03:32:31.033Z,41.03
2018-11-29T03:34:59.671Z,36.70
2018-11-29T03:37:28.345Z,34.70
2018-11-29T03:39:56.992Z,37.80
2018-11-29T03:42:25.674Z,39.00
2018-11-29T03:44:54.399Z,37.10
2018-11-29T03:47:23.068Z,38.83
2018-11-29T03:49:51.741Z,36.00
2018-11-29T03:52:20.390Z,34.27
2018-11-29T03:54:49.055Z,37.17
2018-11-29T03:57:17.734Z,36.87
2018-11-29T03:59:46.409Z,34.80
2018-11-29T04:02:15.115Z,34.37
2018-11-29T04:04:43.814Z,34.10
2018-11-29T04:07:12.462Z,33.27
2018-11-29T04:09:41.144Z,40.23
2018-11-29T04:12:09.807Z,35.80
2018-11-29T04:14:38.490Z,35.63
2018-11-29T04:17:07.157Z,34.60
2018-11-29T04:19:35.822Z,35.27
2018-11-29T04:22:04.564Z,36.73
2018-11-29T04:24:33.218Z,44.97
2018-11-29T04:27:01.901Z,36.87
2018-11-29T04:29:30.555Z,35.10
2018-11-29T04:31:59.207Z,34.60
2018-11-29T04:34:27.890Z,36.30
2018-11-29T04:36:56.562Z,34.60
2018-11-29T04:39:25.247Z,32.10
2018-11-29T04:41:53.908Z,33.73
2018-11-29T04:44:22.591Z,38.73
2018-11-29T04:46:52.116Z,35.03
2018-11-29T04:49:20.780Z,36.37
2018-11-29T04:51:49.461Z,40.43
2018-11-29T04:54:18.192Z,38.43
2018-11-29T04:56:46.858Z,37.93
2018-11-29T04:59:15.529Z,39.70
2018-11-29T05:01:44.190Z,40.50
2018-11-29T05:04:12.859Z,42.93
2018-11-29T05:06:41.526Z,38.27
2018-11-29T05:09:10.509Z,43.80
2018-11-29T05:11:39.202Z,40.07
2018-11-29T05:14:07.867Z,38.90
2018-11-29T05:16:36.735Z,42.03
2018-11-29T05:19:05.444Z,40.33
2018-11-29T05:21:34.102Z,39.63
2018-11-29T05:24:02.751Z,39.87
2018-11-29T05:26:31.451Z,40.50
2018-11-29T05:29:00.107Z,44.20
2018-11-29T05:31:28.823Z,38.10
2018-11-29T05:33:57.506Z,38.57
2018-11-29T05:36:26.198Z,37.83
2018-11-29T05:38:54.878Z,39.17
2018-11-29T05:41:23.563Z,39.50
2018-11-29T05:43:52.224Z,39.67
2018-11-29T05:46:20.931Z,41.70
2018-11-29T05:48:49.612Z,41.33
2018-11-29T05:51:18.255Z,36.80
2018-11-29T05:53:46.958Z,45.67
2018-11-29T05:56:15.623Z,45.83
2018-11-29T05:58:44.305Z,42.17
2018-11-29T06:01:17.179Z,37.43
2018-11-29T06:03:45.868Z,45.10
2018-11-29T06:06:14.519Z,37.47
2018-11-29T06:08:43.178Z,42.70
2018-11-29T06:11:11.883Z,45.47
2018-11-29T06:13:40.560Z,41.80
2018-11-29T06:16:09.230Z,43.20
2018-11-29T06:18:37.953Z,42.80
2018-11-29T06:21:06.625Z,44.10
2018-11-29T06:23:35.286Z,42.73
2018-11-29T06:26:03.957Z,40.17
2018-11-29T06:28:32.628Z,45.97
2018-11-29T06:31:01.303Z,46.80
2018-11-29T06:33:29.978Z,42.43
2018-11-29T06:36:02.087Z,40.60
2018-11-29T06:38:27.285Z,40.80
2018-11-29T06:40:55.947Z,42.00
2018-11-29T06:43:24.599Z,46.97
2018-11-29T06:45:53.246Z,44.67
2018-11-29T06:48:21.916Z,43.20
2018-11-29T06:50:50.605Z,40.10
2018-11-29T06:53:24.845Z,34.67
2018-11-29T06:55:53.503Z,40.10
2018-11-29T06:58:22.139Z,38.90
2018-11-29T07:00:50.836Z,43.23
2018-11-29T07:03:19.475Z,39.43
2018-11-29T07:05:48.146Z,43.63
2018-11-29T07:08:16.838Z,41.13
2018-11-29T07:10:45.510Z,40.63
2018-11-29T07:13:14.174Z,41.30
2018-11-29T07:15:42.834Z,40.40
2018-11-29T07:18:11.486Z,41.40
2018-11-29T07:20:40.210Z,38.93
2018-11-29T07:23:08.877Z,31.50
2018-11-29T07:25:37.557Z,35.03
2018-11-29T07:28:06.226Z,47.23
2018-11-29T07:30:34.897Z,44.20
2018-11-29T07:33:03.554Z,41.57
2018-11-29T07:35:32.227Z,44.33
2018-11-29T07:38:00.876Z,43.10
2018-11-29T07:40:29.550Z,44.03
2018-11-29T07:42:58.238Z,41.17
2018-11-29T07:45:26.932Z,43.83
2018-11-29T07:47:55.650Z,42.03
2018-11-29T07:50:24.309Z,39.23
2018-11-29T07:52:53.001Z,43.60
2018-11-29T07:55:22.088Z,41.03
2018-11-29T07:57:51.923Z,40.00
2018-11-29T08:00:20.589Z,46.87
2018-11-29T08:02:49.278Z,44.93
2018-11-29T08:05:18.211Z,38.50
2018-11-29T08:07:47.927Z,44.07
2018-11-29T08:10:17.187Z,41.60
2018-11-29T08:12:45.941Z,42.80
2018-11-29T08:15:15.702Z,43.50
2018-11-29T08:17:44.354Z,40.37
2018-11-29T08:20:15.094Z,39.70
2018-11-29T08:22:43.770Z,40.77
2018-11-29T08:25:12.435Z,39.10
2018-11-29T08:27:41.083Z,42.13
2018-11-29T08:30:11.777Z,43.50
2018-11-29T08:32:40.491Z,44.03
2018-11-29T08:35:11.077Z,40.20
2018-11-29T08:37:40.605Z,41.83
2018-11-29T08:40:19.098Z,41.20
2018-11-29T08:42:47.906Z,40.27
2018-11-29T08:45:16.586Z,42.20
2018-11-29T08:47:45.327Z,37.77
2018-11-29T08:50:14.498Z,38.03
2018-11-29T08:52:44.083Z,40.03
2018-11-29T08:55:16.860Z,37.53
2018-11-29T08:57:45.969Z,36.10
2018-11-29T09:00:16.608Z,41.17
2018-11-29T09:02:45.291Z,37.37
2018-11-29T09:05:14.305Z,39.27
2018-11-29T09:07:44.006Z,37.13
2018-11-29T09:10:14.007Z,40.37
2018-11-29T09:12:42.706Z,35.50
2018-11-29T09:15:13.243Z,39.63
2018-11-29T09:17:42.070Z,38.47
2018-11-29T09:20:25.596Z,36.63
2018-11-29T09:22:54.270Z,38.40
2018-11-29T09:25:23.148Z,41.83
2018-11-29T09:27:51.842Z,40.00
2018-11-29T09:30:21.393Z,38.67
2018-11-29T09:32:51.119Z,40.27
2018-11-29T09:35:19.803Z,35.80
2018-11-29T09:37:48.502Z,36.43
2018-11-29T09:40:17.902Z,35.53
2018-11-29T09:42:46.771Z,44.63
2018-11-29T09:45:18.403Z,33.90
2018-11-29T09:47:49.276Z,36.27
2018-11-29T09:50:18.119Z,35.37
2018-11-29T09:52:46.995Z,37.53
2018-11-29T09:55:16.543Z,36.90
2018-11-29T09:57:45.858Z,35.90
2018-11-29T10:00:27.910Z,37.23
2018-11-29T10:02:58.184Z,35.70
2018-11-29T10:05:26.866Z,37.80
2018-11-29T10:07:55.554Z,34.37
2018-11-29T10:10:24.248Z,35.70
2018-11-29T10:12:52.932Z,34.63
2018-11-29T10:15:21.632Z,34.77
2018-11-29T10:17:50.318Z,39.43
2018-11-29T10:20:19.006Z,41.30
2018-11-29T10:22:47.680Z,36.77
2018-11-29T10:25:16.350Z,39.43
2018-11-29T10:27:49.750Z,34.50
2018-11-29T10:30:21.422Z,31.80
2018-11-29T10:32:50.083Z,34.60
2018-11-29T10:35:19.098Z,36.33
2018-11-29T10:37:47.761Z,35.40
2018-11-29T10:40:16.414Z,37.53
2018-11-29T10:42:45.062Z,32.27
2018-11-29T10:45:14.967Z,35.17
2018-11-29T10:47:51.931Z,35.17
2018-11-29T10:50:14.378Z,36.27
2018-11-29T10:52:43.073Z,39.57
2018-11-29T10:55:19.214Z,37.13
2018-11-29T10:57:47.900Z,38.13
2018-11-29T11:00:24.997Z,39.67
2018-11-29T11:03:00.246Z,34.70
2018-11-29T11:05:28.923Z,33.20
2018-11-29T11:07:57.580Z,35.43
2018-11-29T11:10:26.279Z,31.43
2018-11-29T11:12:54.918Z,35.03
2018-11-29T11:15:23.591Z,38.37
2018-11-29T11:17:52.271Z,33.53
2018-11-29T11:20:20.940Z,35.23
2018-11-29T11:22:49.598Z,38.63
2018-11-29T11:25:18.284Z,30.70
2018-11-29T11:27:46.967Z,30.53
2018-11-29T11:30:16.817Z,35.63
2018-11-29T11:32:46.728Z,31.30
2018-11-29T11:35:15.427Z,34.10
2018-11-29T11:37:44.082Z,31.60
2018-11-29T11:40:16.496Z,31.80
2018-11-29T11:42:45.871Z,36.20
2018-11-29T11:45:15.689Z,33.23
2018-11-29T11:47:44.378Z,42.00
2018-11-29T11:50:20.922Z,31.10
2018-11-29T11:52:50.031Z,34.10
2018-11-29T11:55:19.420Z,30.07
2018-11-29T11:57:47.937Z,30.20
2018-11-29T12:00:26.547Z,33.10
2018-11-29T12:02:57.331Z,30.97
2018-11-29T12:05:26.019Z,28.40
2018-11-29T12:07:54.757Z,29.70
2018-11-29T12:10:23.411Z,30.43
2018-11-29T12:12:52.122Z,37.27
2018-11-29T12:15:20.797Z,32.07
2018-11-29T12:17:49.480Z,32.10
2018-11-29T12:20:19.079Z,33.80
2018-11-29T12:22:47.759Z,27.57
2018-11-29T12:25:18.502Z,31.67
2018-11-29T12:27:47.235Z,29.90
2018-11-29T12:30:32.266Z,29.50
2018-11-29T12:33:05.456Z,33.97
2018-11-29T12:35:34.110Z,44.60
2018-11-29T12:38:02.793Z,33.10
2018-11-29T12:40:31.474Z,28.83
2018-11-29T12:43:00.136Z,29.30
2018-11-29T12:45:28.855Z,32.90
2018-11-29T12:47:57.558Z,30.70
2018-11-29T12:50:26.805Z,31.40
2018-11-29T12:52:55.440Z,33.63
2018-11-29T12:55:25.146Z,32.47
2018-11-29T12:58:05.409Z,33.13
2018-11-29T13:00:23.460Z,34.27
2018-11-29T13:02:55.791Z,27.60
2018-11-29T13:05:24.916Z,31.30
2018-11-29T13:07:53.615Z,31.70
2018-11-29T13:10:23.863Z,30.43
2018-11-29T13:12:52.310Z,30.00
2018-11-29T13:15:26.311Z,28.50
2018-11-29T13:17:55.644Z,29.07
2018-11-29T13:20:24.317Z,26.77
2018-11-29T13:22:52.991Z,31.87
2018-11-29T13:25:22.799Z,28.07
2018-11-29T13:27:58.193Z,28.33
2018-11-29T13:30:26.859Z,29.83
2018-11-29T13:32:56.402Z,29.23
2018-11-29T13:35:33.203Z,27.80
2018-11-29T13:38:03.502Z,30.63
2018-11-29T13:40:32.178Z,31.27
2018-11-29T13:43:00.861Z,28.10
2018-11-29T13:45:29.526Z,28.17
2018-11-29T13:47:58.182Z,30.80
2018-11-29T13:50:26.891Z,31.37
2018-11-29T13:52:55.562Z,27.00
2018-11-29T13:55:24.356Z,27.30
2018-11-29T13:57:52.994Z,29.00
2018-11-29T14:00:22.634Z,37.20
2018-11-29T14:02:53.778Z,22.87
2018-11-29T14:05:22.481Z,28.40
2018-11-29T14:07:51.151Z,25.17
2018-11-29T14:10:20.966Z,24.57
2018-11-29T14:12:51.860Z,27.50
2018-11-29T14:15:21.823Z,27.70
2018-11-29T14:17:50.538Z,32.30
2018-11-29T14:20:19.221Z,25.50
2018-11-29T14:22:47.882Z,26.60
2018-11-29T14:25:17.078Z,26.20
2018-11-29T14:27:47.879Z,26.80
2018-11-29T14:30:23.774Z,25.20
2018-11-29T14:32:53.269Z,23.97
2018-11-29T14:35:21.991Z,25.10
2018-11-29T14:37:50.650Z,23.27
2018-11-29T14:40:22.295Z,22.40
2018-11-29T14:42:51.051Z,26.00
2018-11-29T14:45:21.874Z,25.43
2018-11-29T14:47:50.706Z,24.30
2018-11-29T14:50:36.636Z,22.83
2018-11-29T14:53:06.276Z,35.83
2018-11-29T14:55:35.610Z,27.00
2018-11-29T14:58:04.318Z,24.13
2018-11-29T15:00:33.018Z,20.77
2018-11-29T15:03:03.414Z,28.20
2018-11-29T15:05:32.433Z,27.23
2018-11-29T15:08:01.090Z,20.93
2018-11-29T15:10:29.762Z,28.80
2018-11-29T15:12:58.461Z,19.77
2018-11-29T15:15:27.127Z,23.37
2018-11-29T15:17:55.820Z,19.37
2018-11-29T15:20:30.408Z,19.40
2018-11-29T15:22:59.050Z,20.60
2018-11-29T15:25:27.815Z,22.77
2018-11-29T15:27:56.411Z,22.60
2018-11-29T15:30:25.059Z,19.63
2018-11-29T15:32:53.746Z,22.10
2018-11-29T15:35:22.427Z,21.37
2018-11-29T15:37:51.105Z,23.83
2018-11-29T15:40:19.786Z,28.70
2018-11-29T15:42:48.642Z,25.07
2018-11-29T15:45:18.646Z,16.90
2018-11-29T15:47:47.277Z,22.77
2018-11-29T15:50:16.313Z,21.80
2018-11-29T15:52:45.079Z,18.80
2018-11-29T15:55:17.494Z,21.57
2018-11-29T15:57:47.153Z,20.90
2018-11-29T16:00:19.858Z,18.10
2018-11-29T16:02:49.060Z,18.43
2018-11-29T16:05:17.792Z,20.17
2018-11-29T16:07:46.489Z,18.77
2018-11-29T16:10:16.460Z,16.00
2018-11-29T16:12:45.116Z,20.77
2018-11-29T16:15:14.724Z,19.17
2018-11-29T16:17:44.010Z,20.00
2018-11-29T16:20:17.137Z,20.23
2018-11-29T16:22:44.783Z,18.63
2018-11-29T16:25:13.447Z,17.13
2018-11-29T16:27:42.119Z,17.53
2018-11-29T16:30:14.788Z,20.77
2018-11-29T16:32:43.438Z,20.50
2018-11-29T16:35:12.093Z,20.20
2018-11-29T16:37:40.793Z,19.47
2018-11-29T16:40:09.534Z,19.33
2018-11-29T16:42:38.235Z,20.17
2018-11-29T16:45:09.780Z,19.60
2018-11-29T16:47:38.698Z,18.70
2018-11-29T16:50:09.652Z,17.20
2018-11-29T16:52:38.311Z,18.40
2018-11-29T16:55:08.230Z,20.47
2018-11-29T16:57:37.222Z,26.17
2018-11-29T17:00:15.608Z,16.00
2018-11-29T17:02:44.307Z,18.80
2018-11-29T17:05:13.668Z,18.20
2018-11-29T17:07:42.350Z,15.30
2018-11-29T17:10:12.214Z,18.70
2018-11-29T17:12:41.407Z,18.63
2018-11-29T17:15:11.638Z,18.43
2018-11-29T17:17:40.362Z,17.60
2018-11-29T17:20:16.216Z,17.90
2018-11-29T17:22:46.015Z,17.70
2018-11-29T17:25:14.727Z,18.33
2018-11-29T17:27:43.402Z,19.20
2018-11-29T17:30:14.466Z,21.20
2018-11-29T17:32:43.414Z,15.93
2018-11-29T17:35:12.112Z,15.17
2018-11-29T17:37:40.990Z,18.20
2018-11-29T17:40:11.824Z,17.53
2018-11-29T17:42:40.483Z,17.23
2018-11-29T17:45:10.652Z,23.70
2018-11-29T17:47:39.378Z,18.10
2018-11-29T17:50:24.321Z,14.80
2018-11-29T17:52:52.979Z,19.97
2018-11-29T17:55:21.661Z,21.07
2018-11-29T17:57:50.418Z,18.97
2018-11-29T18:00:21.192Z,16.30
2018-11-29T18:02:49.880Z,24.27
2018-11-29T18:05:18.571Z,15.40
2018-11-29T18:07:47.243Z,17.13
2018-11-29T18:10:18.889Z,14.67
2018-11-29T18:12:48.982Z,21.87
2018-11-29T18:15:20.155Z,20.37
2018-11-29T18:17:48.828Z,15.53
2018-11-29T18:20:17.530Z,17.30
2018-11-29T18:22:46.218Z,14.87
2018-11-29T18:25:15.518Z,15.13
2018-11-29T18:27:47.354Z,15.13
2018-11-29T18:30:16.932Z,13.37
2018-11-29T18:32:45.607Z,15.80
2018-11-29T18:35:14.839Z,16.00
2018-11-29T18:37:43.849Z,14.33
2018-11-29T18:40:14.476Z,15.73
2018-11-29T18:42:43.162Z,13.03
2018-11-29T18:45:16.883Z,14.90
2018-11-29T18:47:46.690Z,13.70
2018-11-29T18:50:18.235Z,20.60
2018-11-29T18:52:47.025Z,12.93
2018-11-29T18:55:16.011Z,14.30
2018-11-29T18:57:44.734Z,16.83
2018-11-29T19:00:17.566Z,13.67
2018-11-29T19:02:46.310Z,13.67
2018-11-29T19:05:14.968Z,15.07
2018-11-29T19:07:43.765Z,15.93
2018-11-29T19:10:13.343Z,14.63
2018-11-29T19:12:44.523Z,16.30
2018-11-29T19:15:13.410Z,18.50
2018-11-29T19:17:42.122Z,16.90
2018-11-29T19:20:12.595Z,15.90
2018-11-29T19:22:41.306Z,15.23
2018-11-29T19:25:14.002Z,15.17
2018-11-29T19:27:41.952Z,13.90
2018-11-29T19:30:16.846Z,15.20
2018-11-29T19:32:46.998Z,13.90
2018-11-29T19:35:15.678Z,16.20
2018-11-29T19:37:44.349Z,15.83
2018-11-29T19:40:14.150Z,15.30
2018-11-29T19:42:42.798Z,13.20
2018-11-29T19:45:12.786Z,14.50
2018-11-29T19:47:41.462Z,11.70
2018-11-29T19:50:12.798Z,14.47
2018-11-29T19:52:41.663Z,15.97
2018-11-29T19:55:12.210Z,14.10
2018-11-29T19:57:40.874Z,11.90
2018-11-29T20:00:11.028Z,13.17
2018-11-29T20:02:39.802Z,13.17
2018-11-29T20:05:09.923Z,13.10
2018-11-29T20:07:38.525Z,11.37
2018-11-29T20:10:11.629Z,11.10
2018-11-29T20:12:40.296Z,13.43
2018-11-29T20:15:17.375Z,15.60
2018-11-29T20:17:46.082Z,15.37
2018-11-29T20:20:14.774Z,11.53
2018-11-29T20:22:43.493Z,12.40
2018-11-29T20:25:18.275Z,14.53
2018-11-29T20:27:46.974Z,14.73
2018-11-29T20:30:17.589Z,14.20
2018-11-29T20:32:46.999Z,14.57
2018-11-29T20:35:16.285Z,14.73
2018-11-29T20:37:45.070Z,16.40
2018-11-29T20:40:16.827Z,16.43
2018-11-29T20:42:46.525Z,12.57
2018-11-29T20:45:18.697Z,14.40
2018-11-29T20:47:47.422Z,15.87
2018-11-29T20:50:17.797Z,11.37
2018-11-29T20:52:47.199Z,10.53
2018-11-29T20:55:19.934Z,10.63
2018-11-29T20:57:48.609Z,12.50
2018-11-29T21:00:17.309Z,10.77
2018-11-29T21:02:45.960Z,10.77
2018-11-29T21:05:15.967Z,14.37
2018-11-29T21:07:49.066Z,19.97
2018-11-29T21:10:19.212Z,13.60
2018-11-29T21:12:47.874Z,14.60
2018-11-29T21:15:16.520Z,14.37
2018-11-29T21:17:45.205Z,12.50
2018-11-29T21:20:16.062Z,14.83
2018-11-29T21:22:46.029Z,11.50
2018-11-29T21:25:17.831Z,14.83
2018-11-29T21:27:46.508Z,14.37
2018-11-29T21:30:15.918Z,12.37
2018-11-29T21:32:45.241Z,10.60
2018-11-29T21:35:15.139Z,12.87
2018-11-29T21:37:44.165Z,12.87
2018-11-29T21:40:24.827Z,10.63
2018-11-29T21:42:53.511Z,11.27
2018-11-29T21:45:22.190Z,12.33
2018-11-29T21:47:50.870Z,12.43
2018-11-29T21:50:19.534Z,14.40
2018-11-29T21:52:48.207Z,16.57
2018-11-29T21:55:16.893Z,11.27
2018-11-29T21:57:45.559Z,13.80
2018-11-29T22:00:15.519Z,13.50
2018-11-29T22:02:46.442Z,11.87
2018-11-29T22:05:15.152Z,15.00
2018-11-29T22:07:43.843Z,10.60
2018-11-29T22:10:12.515Z,10.33
2018-11-29T22:12:41.170Z,9.77
2018-11-29T22:15:11.417Z,10.63
2018-11-29T22:18:17.378Z,13.13
2018-11-29T22:20:46.682Z,9.13
2018-11-29T22:23:15.378Z,12.13
2018-11-29T22:25:44.203Z,10.30
2018-11-29T22:28:12.911Z,9.37
2018-11-29T22:30:41.551Z,10.83
2018-11-29T22:33:10.211Z,9.93
2018-11-29T22:35:38.879Z,7.40
2018-11-29T22:38:07.783Z,9.10
2018-11-29T22:40:36.437Z,9.80
2018-11-29T22:43:05.473Z,8.57
2018-11-29T22:45:34.160Z,11.37
2018-11-29T22:48:02.952Z,16.40
2018-11-29T22:50:31.646Z,12.37
2018-11-29T22:53:00.346Z,9.60
2018-11-29T22:55:28.966Z,8.80
2018-11-29T22:57:57.678Z,8.70
2018-11-29T23:00:26.670Z,9.37
2018-11-29T23:02:55.339Z,10.63
2018-11-29T23:05:27.572Z,8.87
2018-11-29T23:07:56.842Z,7.40
2018-11-29T23:10:25.512Z,7.27
2018-11-29T23:12:54.195Z,7.00
2018-11-29T23:15:22.871Z,8.40
2018-11-29T23:17:51.524Z,7.40
2018-11-29T23:20:20.221Z,7.07
2018-11-29T23:22:48.897Z,6.43
2018-11-29T23:25:17.597Z,7.73
2018-11-29T23:27:46.246Z,7.60
2018-11-29T23:30:16.519Z,8.60
2018-11-29T23:32:45.275Z,6.70
2018-11-29T23:35:15.514Z,6.60
2018-11-29T23:37:44.174Z,8.47
2018-11-29T23:40:13.946Z,7.30
2018-11-29T23:42:42.601Z,7.70
2018-11-29T23:45:12.141Z,14.50
2018-11-29T23:47:40.817Z,7.07
2018-11-29T23:50:16.979Z,8.23
2018-11-29T23:52:46.080Z,7.27
2018-11-29T23:55:17.940Z,7.20
2018-11-29T23:57:47.402Z,9.10
